Time;durP1;ratioP1;P1;durP2;ratioP2;P2;SDS_P1;SDS_P2;PMS_P1;PMS_P2;Temp;Humidity;BMP_temperature;BMP_pressure;BME280_temperature;BME280_humidity;BME280_pressure;Samples;Min_cycle;Max_cycle;Signal;HPM_P1;HPM_P2
2022/12/16 00:01:10;;;;;;;6.40;5.68;;;22.40;31.40;;;;;;6090096;23;20014;-62
2022/12/16 00:03:37;;;;;;;6.22;5.63;;;22.40;31.70;;;;;;6117030;23;20090;-62
2022/12/16 00:06:04;;;;;;;6.15;5.55;;;22.30;31.30;;;;;;6066650;23;20085;-62
2022/12/16 00:08:38;;;;;;;6.18;5.57;;;22.30;31.30;;;;;;6117496;23;20061;-62
2022/12/16 00:11:04;;;;;;;6.20;5.60;;;22.30;31.40;;;;;;6116519;23;20465;-61
2022/12/16 00:13:31;;;;;;;6.40;5.80;;;22.30;31.40;;;;;;6115866;23;20089;-63
2022/12/16 00:15:58;;;;;;;6.43;5.70;;;22.20;31.40;;;;;;6090907;23;20025;-62
2022/12/16 00:18:24;;;;;;;6.35;5.75;;;22.20;31.40;;;;;;6116742;23;20021;-63
2022/12/16 00:20:54;;;;;;;6.47;5.88;;;22.20;31.40;;;;;;6116429;23;20017;-62
2022/12/16 00:23:20;;;;;;;6.03;5.47;;;22.20;31.40;;;;;;6115869;23;20018;-62
2022/12/16 00:25:47;;;;;;;6.63;5.80;;;22.10;31.40;;;;;;6116566;23;20018;-62
2022/12/16 00:28:14;;;;;;;5.57;5.07;;;22.10;31.40;;;;;;6089676;23;20017;-62
2022/12/16 00:30:41;;;;;;;5.80;5.30;;;22.10;31.40;;;;;;6116611;23;20453;-62
2022/12/16 00:33:07;;;;;;;6.35;5.75;;;22.10;31.40;;;;;;6090078;23;20450;-62
2022/12/16 00:35:33;;;;;;;6.47;5.70;;;22.10;31.40;;;;;;6117001;23;20057;-62
2022/12/16 00:37:58;;;;;;;6.03;5.53;;;22.10;31.50;;;;;;6117174;23;20401;-62
2022/12/16 00:40:24;;;;;;;6.45;5.85;;;22.00;31.40;;;;;;6115823;23;20037;-63
2022/12/16 00:42:51;;;;;;;6.20;5.60;;;22.00;31.40;;;;;;6090321;23;20014;-62
2022/12/16 00:45:16;;;;;;;6.30;5.70;;;22.00;31.40;;;;;;6115846;23;20020;-63
2022/12/16 00:47:42;;;;;;;6.57;5.97;;;22.00;31.40;;;;;;6089890;23;20459;-64
2022/12/16 00:50:10;;;;;;;6.47;5.88;;;22.00;31.30;;;;;;6116587;23;20017;-62
2022/12/16 00:52:35;;;;;;;5.80;5.18;;;22.00;31.20;;;;;;6116328;23;20072;-62
2022/12/16 00:55:01;;;;;;;5.88;5.38;;;22.10;31.20;;;;;;6117365;23;20022;-62
2022/12/16 00:57:27;;;;;;;6.30;5.70;;;22.10;31.20;;;;;;6115993;23;20024;-62
2022/12/16 00:59:53;;;;;;;5.88;5.32;;;22.10;31.10;;;;;;6116569;23;20013;-62
2022/12/16 01:02:18;;;;;;;5.80;5.30;;;22.10;31.10;;;;;;6116545;23;20033;-62
2022/12/16 01:04:44;;;;;;;6.28;5.68;;;22.10;31.10;;;;;;6117658;23;20446;-62
2022/12/16 01:07:09;;;;;;;5.70;5.20;;;22.10;31.00;;;;;;6116369;23;20750;-62
2022/12/16 01:09:35;;;;;;;5.93;5.43;;;22.10;31.00;;;;;;6066889;23;20024;-62
2022/12/16 01:12:01;;;;;;;5.53;5.03;;;22.10;31.00;;;;;;6090436;23;20077;-62
2022/12/16 01:14:27;;;;;;;5.90;5.30;;;22.10;31.00;;;;;;6090006;23;20057;-62
2022/12/16 01:16:52;;;;;;;5.90;5.30;;;22.10;31.00;;;;;;6115289;23;20018;-62
2022/12/16 01:19:18;;;;;;;6.10;5.60;;;22.10;31.00;;;;;;6116858;23;20014;-62
2022/12/16 01:21:44;;;;;;;5.85;5.25;;;22.10;30.90;;;;;;6114478;23;20014;-62
2022/12/16 01:24:11;;;;;;;6.28;5.68;;;22.10;30.90;;;;;;6065502;23;20018;-63
2022/12/16 01:26:38;;;;;;;5.70;5.20;;;22.10;31.70;;;;;;6115818;23;20068;-62
2022/12/16 01:29:04;;;;;;;6.18;5.68;;;22.10;31.00;;;;;;6065412;23;20025;-62
2022/12/16 01:31:30;;;;;;;5.57;5.10;;;22.10;30.90;;;;;;6089850;23;20028;-63
2022/12/16 01:33:56;;;;;;;5.63;5.13;;;22.10;30.90;;;;;;6115999;23;20640;-62
2022/12/16 01:36:22;;;;;;;5.10;4.70;;;22.10;31.00;;;;;;6115897;23;20025;-62
2022/12/16 01:38:48;;;;;;;5.65;5.13;;;22.00;30.90;;;;;;6115232;23;20014;-62
2022/12/16 01:41:15;;;;;;;6.03;5.43;;;22.00;30.90;;;;;;6066849;23;20462;-62
2022/12/16 01:43:42;;;;;;;6.20;5.60;;;22.00;30.90;;;;;;6090182;23;20083;-62
2022/12/16 01:46:11;;;;;;;5.70;5.20;;;22.00;30.90;;;;;;6116892;23;20445;-63
2022/12/16 01:48:42;;;;;;;5.75;5.35;;;22.00;30.90;;;;;;6091712;23;20077;-61
2022/12/16 01:51:18;;;;;;;5.32;4.82;;;22.00;31.00;;;;;;6117336;23;20442;-62
2022/12/16 01:53:46;;;;;;;5.93;5.18;;;22.00;30.90;;;;;;6117080;23;20136;-61
2022/12/16 01:56:15;;;;;;;5.75;5.15;;;22.00;30.90;;;;;;6066072;23;20459;-65
2022/12/16 01:58:42;;;;;;;6.95;6.25;;;22.00;30.80;;;;;;6090465;23;20014;-62
2022/12/16 02:01:08;;;;;;;5.78;5.28;;;22.00;30.90;;;;;;6065838;23;20021;-63
2022/12/16 02:03:35;;;;;;;6.00;5.47;;;21.80;30.90;;;;;;6115348;23;20096;-62
2022/12/16 02:06:04;;;;;;;6.32;5.72;;;21.70;31.00;;;;;;6065292;23;20010;-62
2022/12/16 02:08:30;;;;;;;6.20;5.60;;;21.50;31.10;;;;;;6091020;23;20026;-61
2022/12/16 02:11:18;;;;;;;6.28;5.32;;;21.40;31.20;;;;;;6117614;23;20096;-63
2022/12/16 02:14:18;;;;;;;6.13;5.60;;;21.30;31.30;;;;;;6067770;23;20129;-62
2022/12/16 02:16:56;;;;;;;6.00;5.47;;;21.10;31.30;;;;;;6089936;23;20010;-62
2022/12/16 02:19:40;;;;;;;5.78;5.28;;;21.00;31.90;;;;;;6118158;23;20387;-62
2022/12/16 02:22:43;;;;;;;5.60;5.10;;;20.90;32.60;;;;;;6091199;23;20129;-62
2022/12/16 02:25:52;;;;;;;5.90;5.40;;;21.00;32.40;;;;;;6116526;23;20022;-62
2022/12/16 02:28:46;;;;;;;5.40;4.95;;;21.20;32.10;;;;;;6115098;23;20057;-62
2022/12/16 02:31:22;;;;;;;5.90;5.30;;;21.50;31.70;;;;;;6090600;23;20386;-62
2022/12/16 02:33:58;;;;;;;5.47;4.97;;;21.70;31.30;;;;;;6091159;23;20025;-62
2022/12/16 02:36:49;;;;;;;6.07;5.57;;;21.80;31.10;;;;;;6065420;23;20060;-62
2022/12/16 02:39:27;;;;;;;5.95;5.45;;;22.00;30.90;;;;;;6117794;23;20017;-62
2022/12/16 02:42:10;;;;;;;5.93;5.43;;;22.00;30.70;;;;;;6091112;23;20061;-62
2022/12/16 02:45:07;;;;;;;5.65;5.15;;;22.00;30.70;;;;;;6091364;23;20020;-62
2022/12/16 02:47:32;;;;;;;5.45;4.95;;;22.10;30.50;;;;;;6116826;23;20123;-62
2022/12/16 02:49:59;;;;;;;5.88;5.38;;;22.10;30.50;;;;;;6066978;23;20050;-62
2022/12/16 02:52:34;;;;;;;5.22;4.82;;;22.10;30.40;;;;;;6091486;23;20014;-62
2022/12/16 02:55:03;;;;;;;6.25;5.65;;;22.10;30.40;;;;;;6116902;23;20318;-62
2022/12/16 02:57:38;;;;;;;5.70;5.20;;;22.10;30.40;;;;;;6090494;23;20409;-62
2022/12/16 03:00:06;;;;;;;5.35;4.85;;;22.20;31.20;;;;;;6116496;23;20560;-63
2022/12/16 03:02:40;;;;;;;5.63;5.13;;;22.20;30.40;;;;;;6089085;23;20068;-61
2022/12/16 03:05:17;;;;;;;5.40;4.97;;;22.20;30.40;;;;;;6116269;23;20017;-63
2022/12/16 03:07:44;;;;;;;5.30;4.85;;;22.10;30.30;;;;;;6090838;23;20014;-62
2022/12/16 03:10:16;;;;;;;6.50;5.82;;;22.10;30.30;;;;;;6090279;23;20081;-63
2022/12/16 03:12:44;;;;;;;5.45;4.95;;;22.10;30.20;;;;;;6066655;23;20022;-62
2022/12/16 03:15:14;;;;;;;5.60;5.10;;;22.20;30.30;;;;;;6116567;23;20114;-62
2022/12/16 03:17:41;;;;;;;5.20;4.70;;;22.20;30.30;;;;;;6089711;23;20017;-62
2022/12/16 03:20:07;;;;;;;5.50;5.00;;;22.20;30.30;;;;;;6117234;23;20022;-62
2022/12/16 03:22:37;;;;;;;5.90;5.30;;;22.20;30.20;;;;;;6117007;23;20014;-61
2022/12/16 03:25:05;;;;;;;6.40;5.25;;;22.20;30.20;;;;;;6090890;23;20014;-62
2022/12/16 03:27:34;;;;;;;5.90;5.30;;;22.20;30.20;;;;;;6116132;23;20018;-62
2022/12/16 03:30:12;;;;;;;5.45;4.95;;;22.20;30.20;;;;;;6091221;23;20061;-62
2022/12/16 03:32:50;;;;;;;5.88;5.38;;;22.20;30.10;;;;;;6089886;23;20026;-63
2022/12/16 03:35:21;;;;;;;5.20;4.80;;;22.20;30.00;;;;;;6090843;23;20414;-62
2022/12/16 03:37:51;;;;;;;5.95;5.10;;;22.20;30.00;;;;;;6117074;23;20024;-62
2022/12/16 03:40:20;;;;;;;5.13;4.72;;;22.20;30.10;;;;;;6090690;23;20021;-62
2022/12/16 03:42:47;;;;;;;5.70;5.20;;;22.20;30.10;;;;;;6090842;23;20025;-61
2022/12/16 03:45:21;;;;;;;5.68;5.13;;;22.20;30.00;;;;;;6091245;23;20017;-62
2022/12/16 03:47:51;;;;;;;5.60;5.10;;;22.20;30.00;;;;;;6090261;23;20026;-61
2022/12/16 03:50:22;;;;;;;5.68;5.18;;;22.20;30.10;;;;;;6117232;23;20262;-63
2022/12/16 03:52:48;;;;;;;5.35;4.85;;;22.20;30.00;;;;;;6089501;23;20018;-62
2022/12/16 03:55:14;;;;;;;6.10;5.60;;;22.20;30.00;;;;;;6091025;23;20018;-62
2022/12/16 03:57:40;;;;;;;5.65;5.15;;;22.20;30.00;;;;;;6090017;23;20044;-62
2022/12/16 04:00:06;;;;;;;6.03;5.07;;;22.20;30.00;;;;;;6091117;23;20117;-62
2022/12/16 04:02:32;;;;;;;5.32;4.82;;;22.20;30.10;;;;;;6089684;23;20089;-62
2022/12/16 04:04:58;;;;;;;5.68;5.18;;;22.20;30.00;;;;;;6065573;23;20645;-62
2022/12/16 04:07:24;;;;;;;5.45;4.95;;;22.20;30.00;;;;;;6115839;23;20013;-61
2022/12/16 04:09:50;;;;;;;5.97;5.40;;;22.20;30.00;;;;;;6066702;23;20093;-62
2022/12/16 04:26:08;;;;;;;5.50;4.97;;;22.10;30.00;;;;;;6116512;23;20056;-62
2022/12/16 04:28:34;;;;;;;6.18;4.93;;;22.20;30.00;;;;;;6065742;23;20430;-62
2022/12/16 04:31:00;;;;;;;5.30;4.80;;;22.20;30.00;;;;;;6115559;23;20022;-62
